Çanakkale, Türkiye

Saat: 12:35 AM EET Tarih: 28 Şubat 2015 (GMT +0200)
Dimokritos | Change Station
CLOSE
Current Station
Hava Meydanı
Location: Alexandroupoli,
Yükseklik: 10 ft
Nearby Weather Stations

Elev 10 ft 40.86 °N, 25.94 °E | Updated 15 minutes ago

Light Rain
Hafif Yağmur
54
Feels Like 54
N
7
Rüzgar Değişken Rüzgar from Doğu

Bugün
High -- | Low -- F°
--% Chance of Precip.
Dün
High -- | Low -- F°
Precip. -- inç
6:50 AM 6:04 PM
Şişkin Ay, 72% visible
Basınç 29.74 inç
Görüş Uzaklığı 6.2 mil
Bulutlar Az Bulutlu 3000 ft
Kapalı 8000 ft
Çiğ noktası 45
Nem oranı 72%
Yağış 0.00 inç
Kar Kalınlığı Not available.
0 out of 12
Pollen Not available.
Hava Kalitesi Not available.
Flu Activity Not available.
METAR LGAL 272220Z 09006KT 9999 -RA SCT030 OVC080 12/07 Q1007

More Conditions Fewer Conditions

Basınç 29.74 inç
Görüş Uzaklığı 6.2 mil
Bulutlar Az Bulutlu 3000 ft
Kapalı 8000 ft
Çiğ noktası 45
Nem oranı 72%
Yağış 0.00 inç
Kar Kalınlığı Not available.
0 out of 12
Pollen Not available.
Hava Kalitesi Not available.
Flu Activity Not available.
METAR LGAL 272220Z 09006KT 9999 -RA SCT030 OVC080 12/07 Q1007

More Conditions Fewer Conditions

10-Day Weather Forecast

Almanac

Gökbilim

Feb. 28, 2015 Rise Set
Gerçek Zaman
Günlük Tan
Deniz Tanı
Geceyarısı Yıldız Zamanı
Ay
Görünür Işığın Uzunluğu
Günün Uzunluğu
Tomorrow will be .
, % of the Moon is Illuminated

Günün En Yüksekleri

Country Highs Country Lows

Community

WunderPhotos

Upload Photos

1,800,852 photos uploaded!

WunderBlogs® & News

Nearby

Hava Kalitesi

  Hava Kalitesi Hava Kalitesi Endeksi Kirletici
Not available.

Kar Kalınlığı

Station Depth Yükseklik

Earthquake Activity

Şehir Distance Mag. Time & Date
Minimum magnitude displayed is 2.5.

Coastal Water Temperatures

Yer Sıcaklık

Nearby Weather Stations